^^
Station Historical Data
Daily Summary for March 14, 2019 Units:  English    Metric   Both
« Previous Day
Next Day »
Daily Weekly Monthly Yearly Custom
  High: Low: Average:
Temperature: 31.6 °F 23.5 °F 28.9 °F
Dew Point: 29.1 °F 19.4 °F 25 °F
Humidity: 96% 74% 85%
Wind Speed: 42.0mph 5.0mph 21.8mph
Wind Gust: 50.0mph - -
Wind- - NW
Pressure: 30.12 in 29.68 in -
Precipitation: 0.00 in    
Historical Graphs
 
 
Tabular Data for March 14, 2019
Time Temperature Dew Point Pressure Wind Wind Speed Wind Gust Humidity Rainfall Rate (Hourly) solar Conditions
00:04 29.4 °F 26.6 °F 29.69 in NNW 22.0 mph 29.0 mph 89% 0.00 in 0.00 W/m2
00:09 29.2 °F 26.4 °F 29.69 in NNW 18.0 mph 29.0 mph 89% 0.00 in 0.00 W/m2
00:14 29.1 °F 26.5 °F 29.69 in North 23.0 mph 29.0 mph 90% 0.00 in 0.00 W/m2
00:19 29.0 °F 26.4 °F 29.69 in NNW 20.0 mph 29.0 mph 90% 0.00 in 0.00 W/m2
00:24 28.9 °F 26.6 °F 29.69 in NNW 21.0 mph 33.0 mph 91% 0.00 in 0.00 W/m2
00:29 28.8 °F 26.8 °F 29.69 in NNW 25.0 mph 33.0 mph 92% 0.00 in 0.00 W/m2
00:34 28.8 °F 26.8 °F 29.69 in NNW 25.0 mph 30.0 mph 92% 0.00 in 0.00 W/m2
00:39 28.8 °F 26.8 °F 29.69 in NNW 22.0 mph 30.0 mph 92% 0.00 in 0.00 W/m2
00:44 28.8 °F 26.8 °F 29.69 in NNW 27.0 mph 33.0 mph 92% 0.00 in 0.00 W/m2
00:49 28.8 °F 27.0 °F 29.69 in NNW 24.0 mph 38.0 mph 93% 0.00 in 0.00 W/m2
00:54 28.7 °F 26.9 °F 29.69 in NNW 21.0 mph 40.0 mph 93% 0.00 in 0.00 W/m2
00:59 28.7 °F 26.9 °F 29.69 in NNW 25.0 mph 40.0 mph 93% 0.00 in 0.00 W/m2
01:04 28.7 °F 27.2 °F 29.69 in NNW 25.0 mph 35.0 mph 94% 0.00 in 0.00 W/m2
01:09 28.7 °F 27.2 °F 29.69 in NNW 25.0 mph 33.0 mph 94% 0.00 in 0.00 W/m2
01:14 28.8 °F 27.3 °F 29.69 in NW 18.0 mph 33.0 mph 94% 0.00 in 0.00 W/m2
01:19 28.9 °F 27.4 °F 29.69 in NNW 25.0 mph 33.0 mph 94% 0.00 in 0.00 W/m2
01:24 28.9 °F 27.4 °F 29.69 in NNW 24.0 mph 33.0 mph 94% 0.00 in 0.00 W/m2
01:29 29.0 °F 27.5 °F 29.69 in NNW 24.0 mph 33.0 mph 94% 0.00 in 0.00 W/m2
01:34 29.1 °F 27.8 °F 29.69 in NNW 20.0 mph 36.0 mph 95% 0.00 in 0.00 W/m2
01:39 29.1 °F 27.8 °F 29.69 in NNW 21.0 mph 36.0 mph 95% 0.00 in 0.00 W/m2
01:44 29.2 °F 27.9 °F 29.69 in NNW 26.0 mph 33.0 mph 95% 0.00 in 0.00 W/m2
01:49 29.2 °F 27.9 °F 29.69 in NNW 28.0 mph 33.0 mph 95% 0.00 in 0.00 W/m2
01:54 29.3 °F 28.0 °F 29.69 in NNW 23.0 mph 33.0 mph 95% 0.00 in 0.00 W/m2
01:59 29.3 °F 28.0 °F 29.69 in NNW 22.0 mph 35.0 mph 95% 0.00 in 0.00 W/m2
02:04 29.4 °F 28.1 °F 29.69 in NNW 29.0 mph 35.0 mph 95% 0.00 in 0.00 W/m2
02:09 29.4 °F 28.1 °F 29.69 in NNW 22.0 mph 33.0 mph 95% 0.00 in 0.00 W/m2
02:14 29.5 °F 28.2 °F 29.69 in NNW 23.0 mph 32.0 mph 95% 0.00 in 0.00 W/m2
02:19 29.6 °F 28.3 °F 29.69 in NNW 20.0 mph 36.0 mph 95% 0.00 in 0.00 W/m2
02:24 29.7 °F 28.4 °F 29.69 in NNW 23.0 mph 36.0 mph 95% 0.00 in 0.00 W/m2
02:29 29.8 °F 28.5 °F 29.69 in NNW 21.0 mph 33.0 mph 95% 0.00 in 0.00 W/m2
02:34 29.9 °F 28.6 °F 29.69 in NNW 22.0 mph 32.0 mph 95% 0.00 in 0.00 W/m2
02:39 30.0 °F 28.7 °F 29.69 in NW 25.0 mph 33.0 mph 95% 0.00 in 0.00 W/m2
02:44 30.1 °F 28.8 °F 29.69 in NNW 19.0 mph 35.0 mph 95% 0.00 in 0.00 W/m2
02:49 30.0 °F 28.7 °F 29.69 in NNW 28.0 mph 35.0 mph 95% 0.00 in 0.00 W/m2
02:54 30.1 °F 28.8 °F 29.69 in NNW 23.0 mph 34.0 mph 95% 0.00 in 0.00 W/m2
02:59 30.1 °F 28.8 °F 29.69 in NNW 25.0 mph 35.0 mph 95% 0.00 in 0.00 W/m2
03:04 30.1 °F 29.1 °F 29.69 in North 31.0 mph 37.0 mph 96% 0.00 in 0.00 W/m2
03:09 30.1 °F 29.1 °F 29.69 in NW 23.0 mph 37.0 mph 96% 0.00 in 0.00 W/m2
03:14 29.9 °F 28.6 °F 29.69 in NNW 34.0 mph 39.0 mph 95% 0.00 in 0.00 W/m2
03:19 29.9 °F 28.6 °F 29.68 in NNW 33.0 mph 39.0 mph 95% 0.00 in 0.00 W/m2
03:24 29.9 °F 28.6 °F 29.68 in NW 39.0 mph 40.0 mph 95% 0.00 in 0.00 W/m2
03:29 29.9 °F 28.9 °F 29.68 in NNW 30.0 mph 40.0 mph 96% 0.00 in 0.00 W/m2
03:34 29.9 °F 28.9 °F 29.69 in NNW 24.0 mph 42.0 mph 96% 0.00 in 0.00 W/m2
03:39 29.8 °F 28.8 °F 29.68 in NNW 38.0 mph 42.0 mph 96% 0.00 in 0.00 W/m2
03:44 29.7 °F 28.7 °F 29.69 in NNW 18.0 mph 38.0 mph 96% 0.00 in 0.00 W/m2
03:49 29.7 °F 28.7 °F 29.68 in NNW 42.0 mph 42.0 mph 96% 0.00 in 0.00 W/m2
03:54 29.6 °F 28.6 °F 29.68 in NNW 31.0 mph 45.0 mph 96% 0.00 in 0.00 W/m2
03:59 29.5 °F 28.5 °F 29.68 in North 28.0 mph 45.0 mph 96% 0.00 in 0.00 W/m2
04:04 29.4 °F 28.4 °F 29.68 in NNW 38.0 mph 43.0 mph 96% 0.00 in 0.00 W/m2
04:09 29.4 °F 28.4 °F 29.69 in NNW 25.0 mph 43.0 mph 96% 0.00 in 0.00 W/m2
04:14 29.3 °F 28.3 °F 29.69 in NW 31.0 mph 42.0 mph 96% 0.00 in 0.00 W/m2
04:19 29.2 °F 28.2 °F 29.69 in NNW 18.0 mph 41.0 mph 96% 0.00 in 0.00 W/m2
04:24 29.0 °F 28.0 °F 29.69 in NNW 33.0 mph 40.0 mph 96% 0.00 in 0.00 W/m2
04:29 28.8 °F 27.8 °F 29.69 in NNW 38.0 mph 40.0 mph 96% 0.00 in 0.00 W/m2
04:34 28.7 °F 27.7 °F 29.69 in NW 27.0 mph 45.0 mph 96% 0.00 in 0.00 W/m2
04:39 28.6 °F 27.6 °F 29.69 in NNW 33.0 mph 45.0 mph 96% 0.00 in 0.00 W/m2
04:44 28.5 °F 27.5 °F 29.70 in NNW 42.0 mph 49.0 mph 96% 0.00 in 0.00 W/m2
04:49 28.4 °F 27.4 °F 29.70 in NNW 25.0 mph 49.0 mph 96% 0.00 in 0.00 W/m2
04:54 28.2 °F 27.2 °F 29.70 in North 26.0 mph 42.0 mph 96% 0.00 in 0.00 W/m2
04:59 28.1 °F 27.1 °F 29.71 in NNW 33.0 mph 46.0 mph 96% 0.00 in 0.00 W/m2
05:04 28.0 °F 27.0 °F 29.70 in NNW 29.0 mph 46.0 mph 96% 0.00 in 0.00 W/m2
05:09 27.9 °F 26.7 °F 29.71 in NW 26.0 mph 43.0 mph 95% 0.00 in 0.00 W/m2
05:14 27.8 °F 26.6 °F 29.71 in NNW 40.0 mph 45.0 mph 95% 0.00 in 0.00 W/m2
05:19 27.8 °F 26.6 °F 29.71 in North 22.0 mph 45.0 mph 95% 0.00 in 0.00 W/m2
05:24 27.6 °F 26.6 °F 29.71 in NW 34.0 mph 44.0 mph 96% 0.00 in 0.00 W/m2
05:29 27.6 °F 26.6 °F 29.71 in NNW 35.0 mph 50.0 mph 96% 0.00 in 0.00 W/m2
05:34 27.6 °F 26.6 °F 29.71 in NNW 33.0 mph 50.0 mph 96% 0.00 in 0.00 W/m2
05:39 27.6 °F 26.6 °F 29.71 in NNW 28.0 mph 40.0 mph 96% 0.00 in 0.00 W/m2
05:44 27.6 °F 26.6 °F 29.72 in NNW 28.0 mph 47.0 mph 96% 0.00 in 0.00 W/m2
05:49 27.5 °F 26.5 °F 29.72 in NNW 28.0 mph 47.0 mph 96% 0.00 in 0.00 W/m2
05:54 27.5 °F 26.5 °F 29.72 in NW 30.0 mph 42.0 mph 96% 0.00 in 0.00 W/m2
05:59 27.6 °F 26.6 °F 29.72 in NNW 31.0 mph 42.0 mph 96% 0.00 in 0.00 W/m2
06:04 27.6 °F 26.4 °F 29.73 in NNW 29.0 mph 42.0 mph 95% 0.00 in 0.00 W/m2
06:09 27.6 °F 26.4 °F 29.73 in NW 25.0 mph 44.0 mph 95% 0.00 in 0.00 W/m2
06:14 27.5 °F 26.3 °F 29.73 in NNW 23.0 mph 44.0 mph 95% 0.00 in 0.00 W/m2
06:19 27.5 °F 26.3 °F 29.73 in NNW 28.0 mph 42.0 mph 95% 0.00 in 0.00 W/m2
06:24 27.4 °F 26.2 °F 29.74 in NW 39.0 mph 44.0 mph 95% 0.00 in 0.00 W/m2
06:29 27.3 °F 26.1 °F 29.74 in NNW 29.0 mph 44.0 mph 95% 0.00 in 0.00 W/m2
06:34 27.4 °F 26.2 °F 29.75 in NNW 32.0 mph 41.0 mph 95% 0.00 in 0.00 W/m2
06:39 27.4 °F 26.2 °F 29.75 in NNW 31.0 mph 42.0 mph 95% 0.00 in 0.00 W/m2
06:44 27.4 °F 26.2 °F 29.75 in NNW 24.0 mph 42.0 mph 95% 0.00 in 0.00 W/m2
06:49 27.5 °F 26.3 °F 29.76 in NNW 18.0 mph 39.0 mph 95% 0.00 in 0.00 W/m2
06:54 27.5 °F 26.3 °F 29.76 in NNW 26.0 mph 34.0 mph 95% 0.00 in 0.00 W/m2
06:59 27.5 °F 26.3 °F 29.76 in NNW 24.0 mph 35.0 mph 95% 0.00 in 0.00 W/m2
07:04 27.5 °F 26.3 °F 29.76 in NNW 26.0 mph 35.0 mph 95% 0.00 in 0.00 W/m2
07:09 27.6 °F 26.4 °F 29.77 in NW 27.0 mph 36.0 mph 95% 0.00 in 0.00 W/m2
07:14 27.5 °F 26.0 °F 29.77 in NW 24.0 mph 36.0 mph 94% 0.00 in 0.00 W/m2
07:19 27.5 °F 26.0 °F 29.77 in North 26.0 mph 36.0 mph 94% 0.00 in 0.00 W/m2
07:24 27.6 °F 26.1 °F 29.78 in NNW 31.0 mph 36.0 mph 94% 0.00 in 0.00 W/m2
07:29 27.5 °F 26.0 °F 29.78 in NNW 33.0 mph 39.0 mph 94% 0.00 in 0.00 W/m2
07:34 27.6 °F 26.1 °F 29.78 in NNW 23.0 mph 39.0 mph 94% 0.00 in 0.00 W/m2
07:39 27.5 °F 26.0 °F 29.79 in NW 21.0 mph 35.0 mph 94% 0.00 in 0.00 W/m2
07:44 27.3 °F 25.8 °F 29.79 in NW 30.0 mph 37.0 mph 94% 0.00 in 0.00 W/m2
07:49 27.2 °F 25.7 °F 29.79 in NNW 21.0 mph 37.0 mph 94% 0.00 in 0.00 W/m2
07:54 27.0 °F 25.2 °F 29.79 in NNW 29.0 mph 36.0 mph 93% 0.00 in 5.00 W/m2
07:59 26.9 °F 25.1 °F 29.79 in NNW 22.0 mph 35.0 mph 93% 0.00 in 14.00 W/m2
08:04 26.8 °F 25.0 °F 29.79 in NNW 29.0 mph 35.0 mph 93% 0.00 in 28.00 W/m2
08:09 26.8 °F 25.0 °F 29.80 in NW 24.0 mph 38.0 mph 93% 0.00 in 39.00 W/m2
08:14 26.7 °F 24.9 °F 29.80 in NNW 22.0 mph 38.0 mph 93% 0.00 in 53.00 W/m2
08:19 26.7 °F 24.9 °F 29.80 in NNW 26.0 mph 36.0 mph 93% 0.00 in 62.00 W/m2
08:24 26.8 °F 25.0 °F 29.81 in NW 17.0 mph 36.0 mph 93% 0.00 in 72.00 W/m2
08:29 26.7 °F 24.9 °F 29.81 in NNW 25.0 mph 36.0 mph 93% 0.00 in 88.00 W/m2
08:34 26.8 °F 25.0 °F 29.81 in NW 25.0 mph 36.0 mph 93% 0.00 in 102.00 W/m2
08:39 26.8 °F 25.0 °F 29.81 in NNW 21.0 mph 34.0 mph 93% 0.00 in 113.00 W/m2
08:44 26.9 °F 25.1 °F 29.81 in NW 30.0 mph 35.0 mph 93% 0.00 in 120.00 W/m2
08:49 27.0 °F 25.0 °F 29.82 in NW 26.0 mph 35.0 mph 92% 0.00 in 121.00 W/m2
08:54 27.0 °F 25.0 °F 29.82 in NW 27.0 mph 35.0 mph 92% 0.00 in 121.00 W/m2
08:59 27.0 °F 25.0 °F 29.83 in NW 27.0 mph 35.0 mph 92% 0.00 in 121.00 W/m2
09:04 26.9 °F 24.9 °F 29.83 in NNW 25.0 mph 35.0 mph 92% 0.00 in 120.00 W/m2
09:09 27.0 °F 25.0 °F 29.83 in NW 24.0 mph 35.0 mph 92% 0.00 in 120.00 W/m2
09:14 26.9 °F 24.9 °F 29.83 in NW 30.0 mph 37.0 mph 92% 0.00 in 121.00 W/m2
09:19 27.0 °F 25.0 °F 29.83 in North 34.0 mph 38.0 mph 92% 0.00 in 125.00 W/m2
09:24 27.1 °F 25.1 °F 29.84 in NNW 29.0 mph 38.0 mph 92% 0.00 in 128.00 W/m2
09:29 27.2 °F 25.2 °F 29.84 in NNW 24.0 mph 40.0 mph 92% 0.00 in 134.00 W/m2
09:34 27.3 °F 25.3 °F 29.84 in NW 20.0 mph 40.0 mph 92% 0.00 in 142.00 W/m2
09:39 27.4 °F 25.4 °F 29.84 in NNW 26.0 mph 38.0 mph 92% 0.00 in 156.00 W/m2
09:44 27.5 °F 25.2 °F 29.84 in NW 24.0 mph 33.0 mph 91% 0.00 in 169.00 W/m2
09:49 27.6 °F 25.3 °F 29.85 in NNW 27.0 mph 33.0 mph 91% 0.00 in 183.00 W/m2
09:54 27.6 °F 25.3 °F 29.85 in NW 26.0 mph 33.0 mph 91% 0.00 in 199.00 W/m2
09:59 27.6 °F 25.3 °F 29.86 in NW 20.0 mph 33.0 mph 91% 0.00 in 211.00 W/m2
10:04 27.7 °F 25.4 °F 29.86 in NW 24.0 mph 32.0 mph 91% 0.00 in 230.00 W/m2
10:09 27.7 °F 25.4 °F 29.86 in NW 26.0 mph 36.0 mph 91% 0.00 in 253.00 W/m2
10:14 27.8 °F 25.2 °F 29.86 in NW 24.0 mph 36.0 mph 90% 0.00 in 278.00 W/m2
10:19 27.9 °F 25.3 °F 29.86 in NW 23.0 mph 33.0 mph 90% 0.00 in 295.00 W/m2
10:24 28.1 °F 25.5 °F 29.87 in NW 23.0 mph 33.0 mph 90% 0.00 in 316.00 W/m2
10:29 28.1 °F 25.5 °F 29.86 in NNW 32.0 mph 33.0 mph 90% 0.00 in 336.00 W/m2
10:34 28.3 °F 25.7 °F 29.87 in NW 30.0 mph 35.0 mph 90% 0.00 in 350.00 W/m2
10:39 28.4 °F 25.6 °F 29.87 in NNW 28.0 mph 37.0 mph 89% 0.00 in 355.00 W/m2
10:44 28.5 °F 25.7 °F 29.88 in NNW 26.0 mph 39.0 mph 89% 0.00 in 355.00 W/m2
10:49 28.7 °F 25.6 °F 29.88 in NNW 22.0 mph 39.0 mph 88% 0.00 in 369.00 W/m2
10:54 28.7 °F 25.6 °F 29.88 in WNW 24.0 mph 36.0 mph 88% 0.00 in 355.00 W/m2
10:59 28.8 °F 25.4 °F 29.88 in NW 16.0 mph 35.0 mph 87% 0.00 in 355.00 W/m2
11:04 28.7 °F 25.3 °F 29.89 in NNW 22.0 mph 37.0 mph 87% 0.00 in 357.00 W/m2
11:09 28.7 °F 25.0 °F 29.89 in NW 27.0 mph 37.0 mph 86% 0.00 in 367.00 W/m2
11:14 28.9 °F 25.2 °F 29.89 in NW 23.0 mph 36.0 mph 86% 0.00 in 369.00 W/m2
11:19 29.1 °F 25.2 °F 29.89 in NW 31.0 mph 33.0 mph 85% 0.00 in 422.00 W/m2
11:23 29.2 °F 25.0 °F 29.89 in NW 22.0 mph 33.0 mph 84% 0.00 in 410.00 W/m2
11:29 29.2 °F 24.7 °F 29.89 in NNW 25.0 mph 34.0 mph 83% 0.00 in 378.00 W/m2
11:34 29.2 °F 24.7 °F 29.89 in NW 23.0 mph 34.0 mph 83% 0.00 in 392.00 W/m2
11:39 29.2 °F 24.4 °F 29.90 in NW 21.0 mph 34.0 mph 82% 0.00 in 403.00 W/m2
11:44 29.5 °F 24.7 °F 29.89 in NW 24.0 mph 35.0 mph 82% 0.00 in 415.00 W/m2
11:49 29.9 °F 24.8 °F 29.90 in NNW 29.0 mph 35.0 mph 81% 0.00 in 483.00 W/m2
11:54 30.3 °F 24.6 °F 29.90 in NW 35.0 mph 39.0 mph 79% 0.00 in 608.00 W/m2
11:59 30.7 °F 24.7 °F 29.91 in NW 22.0 mph 39.0 mph 78% 0.00 in 635.00 W/m2
12:04 31.1 °F 24.7 °F 29.90 in NNW 25.0 mph 35.0 mph 77% 0.00 in 640.00 W/m2
12:09 31.2 °F 24.8 °F 29.91 in NW 26.0 mph 35.0 mph 77% 0.00 in 649.00 W/m2
12:14 31.3 °F 24.9 °F 29.91 in NW 27.0 mph 35.0 mph 77% 0.00 in 652.00 W/m2
12:19 31.2 °F 24.5 °F 29.91 in NW 27.0 mph 35.0 mph 76% 0.00 in 657.00 W/m2
12:24 31.2 °F 24.8 °F 29.92 in NW 20.0 mph 35.0 mph 77% 0.00 in 661.00 W/m2
12:29 31.2 °F 24.5 °F 29.92 in NW 16.0 mph 34.0 mph 76% 0.00 in 670.00 W/m2
12:34 31.4 °F 25.0 °F 29.92 in NW 25.0 mph 34.0 mph 77% 0.00 in 679.00 W/m2
12:39 31.4 °F 24.7 °F 29.92 in NW 26.0 mph 31.0 mph 76% 0.00 in 585.00 W/m2
12:44 31.4 °F 24.7 °F 29.92 in NW 18.0 mph 31.0 mph 76% 0.00 in 686.00 W/m2
12:49 31.3 °F 24.6 °F 29.93 in NNW 18.0 mph 30.0 mph 76% 0.00 in 691.00 W/m2
12:54 31.0 °F 24.3 °F 29.93 in NW 20.0 mph 30.0 mph 76% 0.00 in 693.00 W/m2
12:59 31.0 °F 24.6 °F 29.93 in NW 20.0 mph 29.0 mph 77% 0.00 in 698.00 W/m2
13:04 30.8 °F 24.4 °F 29.93 in NW 23.0 mph 26.0 mph 77% 0.00 in 701.00 W/m2
13:09 30.8 °F 24.4 °F 29.93 in NW 14.0 mph 26.0 mph 77% 0.00 in 708.00 W/m2
13:14 30.8 °F 24.1 °F 29.93 in NW 23.0 mph 26.0 mph 76% 0.00 in 712.00 W/m2
13:19 30.7 °F 24.3 °F 29.93 in NW 15.0 mph 27.0 mph 77% 0.00 in 714.00 W/m2
13:24 30.7 °F 24.3 °F 29.93 in NW 20.0 mph 27.0 mph 77% 0.00 in 715.00 W/m2
13:29 30.9 °F 24.5 °F 29.94 in WNW 14.0 mph 25.0 mph 77% 0.00 in 710.00 W/m2
13:34 30.9 °F 26.1 °F 29.94 in NW 16.0 mph 25.0 mph 82% 0.00 in 722.00 W/m2
13:39 31.0 °F 24.3 °F 29.94 in WNW 16.0 mph 28.0 mph 76% 0.00 in 719.00 W/m2
13:44 31.0 °F 24.6 °F 29.94 in NW 21.0 mph 28.0 mph 77% 0.00 in 726.00 W/m2
13:49 31.1 °F 24.7 °F 29.94 in NW 16.0 mph 27.0 mph 77% 0.00 in 726.00 W/m2
13:54 31.1 °F 24.7 °F 29.94 in WNW 21.0 mph 25.0 mph 77% 0.00 in 728.00 W/m2
13:59 31.2 °F 24.8 °F 29.94 in NW 14.0 mph 25.0 mph 77% 0.00 in 726.00 W/m2
14:04 31.1 °F 24.7 °F 29.94 in NW 22.0 mph 29.0 mph 77% 0.00 in 735.00 W/m2
14:09 31.0 °F 24.3 °F 29.94 in NW 29.0 mph 29.0 mph 76% 0.00 in 689.00 W/m2
14:14 31.1 °F 24.7 °F 29.94 in WNW 25.0 mph 31.0 mph 77% 0.00 in 673.00 W/m2
14:19 31.2 °F 24.5 °F 29.94 in NW 21.0 mph 31.0 mph 76% 0.00 in 715.00 W/m2
14:24 31.2 °F 24.8 °F 29.94 in NW 19.0 mph 31.0 mph 77% 0.00 in 728.00 W/m2
14:29 31.2 °F 24.5 °F 29.94 in NW 25.0 mph 33.0 mph 76% 0.00 in 719.00 W/m2
14:34 31.0 °F 24.3 °F 29.94 in NNW 17.0 mph 33.0 mph 76% 0.00 in 638.00 W/m2
14:39 30.7 °F 24.3 °F 29.94 in NW 28.0 mph 32.0 mph 77% 0.00 in 666.00 W/m2
14:44 30.6 °F 24.2 °F 29.94 in WNW 17.0 mph 32.0 mph 77% 0.00 in 680.00 W/m2
14:49 30.7 °F 24.3 °F 29.94 in NW 22.0 mph 30.0 mph 77% 0.00 in 668.00 W/m2
14:54 30.8 °F 24.4 °F 29.95 in NW 19.0 mph 30.0 mph 77% 0.00 in 698.00 W/m2
14:59 31.0 °F 24.6 °F 29.95 in NW 23.0 mph 31.0 mph 77% 0.00 in 696.00 W/m2
15:04 31.1 °F 24.7 °F 29.95 in NW 13.0 mph 31.0 mph 77% 0.00 in 686.00 W/m2
15:09 31.2 °F 24.8 °F 29.95 in NW 23.0 mph 28.0 mph 77% 0.00 in 656.00 W/m2
15:14 31.4 °F 25.0 °F 29.95 in NW 19.0 mph 28.0 mph 77% 0.00 in 668.00 W/m2
15:19 31.6 °F 25.5 °F 29.95 in WNW 20.0 mph 28.0 mph 78% 0.00 in 649.00 W/m2
15:24 31.6 °F 25.2 °F 29.95 in NNW 23.0 mph 26.0 mph 77% 0.00 in 594.00 W/m2
15:29 31.6 °F 25.2 °F 29.95 in NW 20.0 mph 31.0 mph 77% 0.00 in 663.00 W/m2
15:34 31.5 °F 25.1 °F 29.95 in NW 31.0 mph 31.0 mph 77% 0.00 in 650.00 W/m2
15:39 31.3 °F 25.2 °F 29.96 in NW 19.0 mph 35.0 mph 78% 0.00 in 642.00 W/m2
15:44 31.2 °F 25.4 °F 29.96 in NNW 26.0 mph 35.0 mph 79% 0.00 in 633.00 W/m2
15:49 31.3 °F 25.2 °F 29.97 in NW 24.0 mph 33.0 mph 78% 0.00 in 622.00 W/m2
15:54 31.2 °F 25.1 °F 29.97 in NNW 17.0 mph 31.0 mph 78% 0.00 in 612.00 W/m2
15:59 31.2 °F 24.8 °F 29.97 in NW 17.0 mph 32.0 mph 77% 0.00 in 608.00 W/m2
16:04 31.1 °F 25.0 °F 29.97 in NW 19.0 mph 32.0 mph 78% 0.00 in 598.00 W/m2
16:09 31.1 °F 25.0 °F 29.97 in WNW 23.0 mph 32.0 mph 78% 0.00 in 573.00 W/m2
16:14 31.0 °F 24.9 °F 29.98 in NW 19.0 mph 28.0 mph 78% 0.00 in 541.00 W/m2
16:19 31.1 °F 25.0 °F 29.98 in NW 22.0 mph 28.0 mph 78% 0.00 in 571.00 W/m2
16:24 31.0 °F 24.6 °F 29.98 in WNW 23.0 mph 32.0 mph 77% 0.00 in 559.00 W/m2
16:29 31.0 °F 24.9 °F 29.98 in NW 29.0 mph 32.0 mph 78% 0.00 in 557.00 W/m2
16:34 31.1 °F 25.0 °F 29.98 in NNW 15.0 mph 30.0 mph 78% 0.00 in 541.00 W/m2
16:39 31.0 °F 24.6 °F 29.99 in NW 20.0 mph 36.0 mph 77% 0.00 in 529.00 W/m2
16:44 30.9 °F 24.5 °F 29.99 in NW 24.0 mph 36.0 mph 77% 0.00 in 510.00 W/m2
16:49 30.9 °F 24.8 °F 29.98 in NW 30.0 mph 34.0 mph 78% 0.00 in 497.00 W/m2
16:54 30.8 °F 24.4 °F 29.99 in NW 20.0 mph 34.0 mph 77% 0.00 in 485.00 W/m2
16:59 30.7 °F 24.3 °F 29.99 in NW 28.0 mph 34.0 mph 77% 0.00 in 471.00 W/m2
17:04 30.6 °F 24.2 °F 29.99 in NW 16.0 mph 35.0 mph 77% 0.00 in 462.00 W/m2
17:09 30.5 °F 24.1 °F 29.99 in NW 29.0 mph 35.0 mph 77% 0.00 in 445.00 W/m2
17:14 30.5 °F 24.1 °F 30.00 in WNW 25.0 mph 37.0 mph 77% 0.00 in 431.00 W/m2
17:19 30.5 °F 24.1 °F 30.00 in NNW 22.0 mph 37.0 mph 77% 0.00 in 417.00 W/m2
17:24 30.6 °F 23.9 °F 30.00 in NW 30.0 mph 33.0 mph 76% 0.00 in 404.00 W/m2
17:29 30.7 °F 24.0 °F 30.00 in NW 31.0 mph 39.0 mph 76% 0.00 in 390.00 W/m2
17:34 30.8 °F 23.8 °F 30.00 in NW 23.0 mph 39.0 mph 75% 0.00 in 376.00 W/m2
17:39 30.9 °F 23.9 °F 30.00 in NW 17.0 mph 36.0 mph 75% 0.00 in 360.00 W/m2
17:44 30.8 °F 23.8 °F 30.01 in NW 18.0 mph 33.0 mph 75% 0.00 in 348.00 W/m2
17:49 30.8 °F 23.5 °F 30.00 in NW 28.0 mph 33.0 mph 74% 0.00 in 329.00 W/m2
17:54 30.7 °F 23.7 °F 30.01 in NW 25.0 mph 31.0 mph 75% 0.00 in 313.00 W/m2
17:59 30.7 °F 23.7 °F 30.01 in NW 16.0 mph 31.0 mph 75% 0.00 in 297.00 W/m2
18:04 30.8 °F 23.8 °F 30.00 in NW 22.0 mph 31.0 mph 75% 0.00 in 278.00 W/m2
18:09 30.7 °F 23.7 °F 30.01 in NW 18.0 mph 31.0 mph 75% 0.00 in 258.00 W/m2
18:14 30.7 °F 23.7 °F 30.01 in NW 19.0 mph 31.0 mph 75% 0.00 in 239.00 W/m2
18:19 30.8 °F 23.8 °F 30.01 in NW 25.0 mph 33.0 mph 75% 0.00 in 218.00 W/m2
18:24 30.7 °F 23.7 °F 30.01 in NW 16.0 mph 33.0 mph 75% 0.00 in 197.00 W/m2
18:29 30.7 °F 23.7 °F 30.02 in WNW 15.0 mph 29.0 mph 75% 0.00 in 181.00 W/m2
18:34 30.5 °F 23.5 °F 30.02 in NW 18.0 mph 28.0 mph 75% 0.00 in 160.00 W/m2
18:39 30.5 °F 23.5 °F 30.02 in NW 12.0 mph 28.0 mph 75% 0.00 in 139.00 W/m2
18:44 30.5 °F 23.5 °F 30.02 in WNW 17.0 mph 25.0 mph 75% 0.00 in 121.00 W/m2
18:49 30.4 °F 23.4 °F 30.03 in NW 19.0 mph 23.0 mph 75% 0.00 in 104.00 W/m2
18:54 30.3 °F 23.3 °F 30.03 in NW 17.0 mph 29.0 mph 75% 0.00 in 86.00 W/m2
18:59 30.2 °F 22.9 °F 30.03 in NW 22.0 mph 29.0 mph 74% 0.00 in 70.00 W/m2
19:04 30.2 °F 22.9 °F 30.04 in NW 15.0 mph 25.0 mph 74% 0.00 in 58.00 W/m2
19:09 30.0 °F 22.7 °F 30.04 in NW 16.0 mph 25.0 mph 74% 0.00 in 46.00 W/m2
19:14 29.8 °F 22.5 °F 30.04 in NW 14.0 mph 22.0 mph 74% 0.00 in 33.00 W/m2
19:19 29.7 °F 22.4 °F 30.04 in NW 14.0 mph 22.0 mph 74% 0.00 in 25.00 W/m2
19:24 29.6 °F 22.3 °F 30.04 in WNW 16.0 mph 25.0 mph 74% 0.00 in 19.00 W/m2
19:29 29.4 °F 22.1 °F 30.05 in NW 18.0 mph 25.0 mph 74% 0.00 in 16.00 W/m2
19:34 29.3 °F 22.4 °F 30.05 in NW 18.0 mph 24.0 mph 75% 0.00 in 12.00 W/m2
19:39 29.0 °F 22.4 °F 30.05 in WNW 17.0 mph 23.0 mph 76% 0.00 in 11.00 W/m2
19:44 28.9 °F 22.6 °F 30.05 in WNW 14.0 mph 22.0 mph 77% 0.00 in 7.00 W/m2
19:49 28.7 °F 22.4 °F 30.06 in NW 15.0 mph 22.0 mph 77% 0.00 in 5.00 W/m2
19:54 28.6 °F 22.6 °F 30.06 in WNW 11.0 mph 21.0 mph 78% 0.00 in 0.00 W/m2
19:59 28.9 °F 22.6 °F 30.06 in NW 17.0 mph 22.0 mph 77% 0.00 in 0.00 W/m2
20:04 28.9 °F 22.3 °F 30.06 in WNW 12.0 mph 22.0 mph 76% 0.00 in 0.00 W/m2
20:09 28.8 °F 22.2 °F 30.07 in NNW 18.0 mph 21.0 mph 76% 0.00 in 0.00 W/m2
20:14 28.7 °F 22.1 °F 30.07 in NW 16.0 mph 22.0 mph 76% 0.00 in 0.00 W/m2
20:19 28.7 °F 22.4 °F 30.07 in NW 16.0 mph 22.0 mph 77% 0.00 in 0.00 W/m2
20:24 28.8 °F 22.2 °F 30.07 in NW 15.0 mph 22.0 mph 76% 0.00 in 0.00 W/m2
20:29 28.7 °F 22.4 °F 30.07 in NW 11.0 mph 21.0 mph 77% 0.00 in 0.00 W/m2
20:34 28.5 °F 22.2 °F 30.08 in NW 10.0 mph 21.0 mph 77% 0.00 in 0.00 W/m2
20:39 28.3 °F 22.3 °F 30.08 in NW 11.0 mph 19.0 mph 78% 0.00 in 0.00 W/m2
20:44 28.0 °F 22.0 °F 30.08 in WNW 11.0 mph 17.0 mph 78% 0.00 in 0.00 W/m2
20:49 27.7 °F 22.0 °F 30.08 in NW 11.0 mph 17.0 mph 79% 0.00 in 0.00 W/m2
20:54 27.9 °F 22.2 °F 30.08 in WNW 13.0 mph 18.0 mph 79% 0.00 in 0.00 W/m2
20:59 28.0 °F 22.6 °F 30.08 in NW 10.0 mph 19.0 mph 80% 0.00 in 0.00 W/m2
21:04 28.2 °F 23.1 °F 30.09 in NW 10.0 mph 19.0 mph 81% 0.00 in 0.00 W/m2
21:09 28.2 °F 23.1 °F 30.09 in WNW 13.0 mph 17.0 mph 81% 0.00 in 0.00 W/m2
21:14 28.2 °F 23.4 °F 30.09 in WNW 13.0 mph 18.0 mph 82% 0.00 in 0.00 W/m2
21:19 28.1 °F 23.3 °F 30.09 in WNW 15.0 mph 18.0 mph 82% 0.00 in 0.00 W/m2
21:24 28.2 °F 23.7 °F 30.09 in WNW 12.0 mph 20.0 mph 83% 0.00 in 0.00 W/m2
21:29 28.1 °F 23.3 °F 30.09 in NW 9.0 mph 20.0 mph 82% 0.00 in 0.00 W/m2
21:34 28.1 °F 23.6 °F 30.09 in NW 15.0 mph 18.0 mph 83% 0.00 in 0.00 W/m2
21:39 28.0 °F 23.2 °F 30.10 in WNW 11.0 mph 18.0 mph 82% 0.00 in 0.00 W/m2
21:44 28.0 °F 23.2 °F 30.10 in NW 10.0 mph 18.0 mph 82% 0.00 in 0.00 W/m2
21:49 27.6 °F 22.8 °F 30.10 in NW 12.0 mph 18.0 mph 82% 0.00 in 0.00 W/m2
21:54 27.4 °F 22.6 °F 30.10 in WNW 14.0 mph 18.0 mph 82% 0.00 in 0.00 W/m2
21:59 27.3 °F 22.5 °F 30.10 in WNW 15.0 mph 18.0 mph 82% 0.00 in 0.00 W/m2
22:04 27.2 °F 22.4 °F 30.10 in WNW 12.0 mph 17.0 mph 82% 0.00 in 0.00 W/m2
22:09 27.1 °F 22.3 °F 30.10 in WNW 12.0 mph 17.0 mph 82% 0.00 in 0.00 W/m2
22:14 27.0 °F 22.2 °F 30.10 in WNW 9.0 mph 18.0 mph 82% 0.00 in 0.00 W/m2
22:19 26.7 °F 21.9 °F 30.10 in WNW 10.0 mph 18.0 mph 82% 0.00 in 0.00 W/m2
22:24 26.7 °F 22.2 °F 30.10 in West 13.0 mph 19.0 mph 83% 0.00 in 0.00 W/m2
22:29 26.7 °F 21.9 °F 30.10 in WNW 13.0 mph 19.0 mph 82% 0.00 in 0.00 W/m2
22:34 26.2 °F 21.5 °F 30.10 in WNW 11.0 mph 17.0 mph 82% 0.00 in 0.00 W/m2
22:39 26.1 °F 21.6 °F 30.10 in WNW 8.0 mph 16.0 mph 83% 0.00 in 0.00 W/m2
22:44 26.3 °F 21.8 °F 30.11 in WNW 12.0 mph 19.0 mph 83% 0.00 in 0.00 W/m2
22:49 26.7 °F 22.2 °F 30.11 in WNW 16.0 mph 19.0 mph 83% 0.00 in 0.00 W/m2
22:54 26.9 °F 22.1 °F 30.11 in WNW 10.0 mph 19.0 mph 82% 0.00 in 0.00 W/m2
22:59 26.9 °F 22.1 °F 30.11 in WNW 14.0 mph 19.0 mph 82% 0.00 in 0.00 W/m2
23:04 26.7 °F 21.9 °F 30.11 in WNW 11.0 mph 19.0 mph 82% 0.00 in 0.00 W/m2
23:09 26.0 °F 21.3 °F 30.11 in WNW 12.0 mph 17.0 mph 82% 0.00 in 0.00 W/m2
23:14 25.6 °F 21.2 °F 30.11 in WNW 7.0 mph 14.0 mph 83% 0.00 in 0.00 W/m2
23:19 25.6 °F 21.2 °F 30.11 in WNW 11.0 mph 16.0 mph 83% 0.00 in 0.00 W/m2
23:24 25.3 °F 20.9 °F 30.11 in WNW 11.0 mph 16.0 mph 83% 0.00 in 0.00 W/m2
23:29 24.9 °F 20.5 °F 30.11 in WNW 6.0 mph 13.0 mph 83% 0.00 in 0.00 W/m2
23:34 24.7 °F 20.3 °F 30.12 in WNW 11.0 mph 13.0 mph 83% 0.00 in 0.00 W/m2
23:39 24.4 °F 20.0 °F 30.12 in WNW 9.0 mph 13.0 mph 83% 0.00 in 0.00 W/m2
23:44 24.0 °F 19.6 °F 30.12 in WNW 6.0 mph 13.0 mph 83% 0.00 in 0.00 W/m2
23:49 23.8 °F 19.7 °F 30.12 in WNW 7.0 mph 11.0 mph 84% 0.00 in 0.00 W/m2
23:54 23.6 °F 19.5 °F 30.12 in WNW 6.0 mph 10.0 mph 84% 0.00 in 0.00 W/m2
23:59 23.5 °F 19.4 °F 30.12 in WNW 5.0 mph 9.0 mph 84% 0.00 in 0.00 W/m2
Bismarck, North Dakota, USA
Compliments of Weather Underground - 4 mb